Time;durP1;ratioP1;P1;durP2;ratioP2;P2;SDS_P1;SDS_P2;PMS_P1;PMS_P2;Temp;Humidity;BMP_temperature;BMP_pressure;BME280_temperature;BME280_humidity;BME280_pressure;Samples;Min_cycle;Max_cycle;Signal;HPM_P1;HPM_P2
2022/05/20 00:02:28;;;;;;;2.72;2.33;;;27.10;58.20;;;;;;10094404;28;20036;-67
2022/05/20 00:07:18;;;;;;;6.47;2.85;;;27.00;58.60;;;;;;10092311;28;20135;-65
2022/05/20 00:12:09;;;;;;;4.05;3.08;;;26.90;58.60;;;;;;10092828;28;20021;-64
2022/05/20 00:17:05;;;;;;;3.58;3.03;;;26.90;58.80;;;;;;10092935;28;20258;-66
2022/05/20 00:21:56;;;;;;;5.95;3.42;;;26.80;59.10;;;;;;10087776;28;20082;-69
2022/05/20 00:26:47;;;;;;;3.42;2.67;;;26.80;59.20;;;;;;10092243;28;20149;-64
2022/05/20 00:31:38;;;;;;;7.75;3.38;;;26.50;59.50;;;;;;10090678;28;20028;-64
2022/05/20 00:36:28;;;;;;;5.88;3.33;;;26.50;59.60;;;;;;10094421;28;20027;-65
2022/05/20 00:41:19;;;;;;;6.45;3.03;;;26.50;59.70;;;;;;10091925;28;20025;-67
2022/05/20 00:46:17;;;;;;;8.23;3.40;;;26.50;59.90;;;;;;10092138;28;20013;-63
2022/05/20 00:51:25;;;;;;;4.10;2.85;;;26.40;60.30;;;;;;10091924;28;20098;-67
2022/05/20 00:56:22;;;;;;;4.78;3.42;;;26.30;60.50;;;;;;10093739;28;20104;-67
2022/05/20 01:01:13;;;;;;;6.05;2.75;;;26.30;60.50;;;;;;10093673;28;20029;-61
2022/05/20 01:06:04;;;;;;;5.78;3.28;;;26.10;61.00;;;;;;10095604;28;20032;-65
2022/05/20 01:10:55;;;;;;;4.53;3.40;;;25.90;61.50;;;;;;10090713;28;20036;-66
2022/05/20 01:15:47;;;;;;;6.22;2.83;;;25.60;62.20;;;;;;10092464;28;20108;-64
2022/05/20 01:20:42;;;;;;;4.78;3.40;;;25.80;62.10;;;;;;10088038;28;20071;-66
2022/05/20 01:25:34;;;;;;;8.90;4.60;;;25.80;62.10;;;;;;10091252;28;20422;-65
2022/05/20 01:30:29;;;;;;;5.55;2.92;;;25.80;62.50;;;;;;10097221;28;20037;-65
2022/05/20 01:35:38;;;;;;;4.45;3.00;;;25.70;62.80;;;;;;10098519;28;20079;-66
2022/05/20 01:40:39;;;;;;;5.60;3.35;;;25.60;63.20;;;;;;10090645;28;20025;-67
2022/05/20 01:46:00;;;;;;;7.05;3.83;;;25.60;63.30;;;;;;10097629;28;20127;-68
2022/05/20 01:50:55;;;;;;;4.88;3.13;;;25.60;63.40;;;;;;10088210;28;20032;-69
2022/05/20 01:56:00;;;;;;;6.20;4.03;;;25.40;63.70;;;;;;10096485;28;20120;-68
2022/05/20 02:00:55;;;;;;;4.20;3.20;;;25.20;64.40;;;;;;10096602;28;20025;-71
2022/05/20 02:06:07;;;;;;;5.97;3.65;;;25.00;64.50;;;;;;10094461;28;20095;-68
2022/05/20 02:11:01;;;;;;;7.35;3.53;;;25.00;64.80;;;;;;10094622;28;20040;-68
2022/05/20 02:16:03;;;;;;;6.93;3.30;;;25.20;65.00;;;;;;10098895;28;20017;-67
2022/05/20 02:20:59;;;;;;;3.45;3.15;;;25.10;65.00;;;;;;10095732;28;20017;-63
2022/05/20 02:25:57;;;;;;;6.30;3.53;;;25.00;65.20;;;;;;10095576;28;20060;-64
2022/05/20 02:30:49;;;;;;;5.72;4.03;;;25.00;65.70;;;;;;10096002;28;20410;-64
2022/05/20 02:35:40;;;;;;;5.35;3.35;;;25.00;65.80;;;;;;10101114;28;20039;-67
2022/05/20 02:40:31;;;;;;;7.78;3.70;;;24.90;66.10;;;;;;10107724;28;20111;-68
2022/05/20 02:45:22;;;;;;;5.88;3.47;;;24.90;66.10;;;;;;10128345;28;20097;-67
2022/05/20 02:50:13;;;;;;;5.43;3.60;;;24.80;66.40;;;;;;10127056;28;20037;-66
2022/05/20 02:55:04;;;;;;;5.03;3.70;;;24.90;66.40;;;;;;10095278;28;20032;-64
2022/05/20 03:05:05;;;;;;;5.97;3.50;;;24.60;67.20;;;;;;10089170;28;20414;-66
2022/05/20 03:09:55;;;;;;;6.07;3.53;;;24.70;67.20;;;;;;10096134;28;20120;-65
2022/05/20 03:14:46;;;;;;;3.20;2.88;;;24.70;67.50;;;;;;10098406;28;20183;-67
2022/05/20 03:19:38;;;;;;;6.22;3.35;;;24.70;67.40;;;;;;10088368;28;20107;-63
2022/05/20 03:24:29;;;;;;;9.77;4.05;;;24.80;67.60;;;;;;10093665;28;20016;-66
2022/05/20 03:29:20;;;;;;;10.18;5.53;;;24.70;67.60;;;;;;10092747;28;20049;-65
2022/05/20 03:34:11;;;;;;;8.98;4.88;;;24.50;68.30;;;;;;10092976;28;20013;-64
2022/05/20 03:39:03;;;;;;;12.48;6.38;;;24.60;68.40;;;;;;10096688;28;20537;-64
2022/05/20 03:43:53;;;;;;;9.02;5.80;;;24.40;68.60;;;;;;10093282;28;20017;-64
2022/05/20 03:48:44;;;;;;;10.45;5.45;;;24.40;68.90;;;;;;10092097;28;20048;-62
2022/05/20 03:53:35;;;;;;;10.15;4.95;;;24.40;68.90;;;;;;10093695;28;20430;-62
2022/05/20 03:58:26;;;;;;;11.60;4.88;;;24.50;68.80;;;;;;10093280;28;20564;-67
2022/05/20 04:03:18;;;;;;;5.57;4.22;;;24.40;69.10;;;;;;10092748;28;20033;-63
2022/05/20 04:08:09;;;;;;;5.38;3.95;;;24.30;69.50;;;;;;10091888;28;20029;-62
2022/05/20 04:12:59;;;;;;;7.45;4.35;;;24.20;69.60;;;;;;10092412;28;20051;-65
2022/05/20 04:17:50;;;;;;;5.65;3.63;;;24.30;69.40;;;;;;10095430;28;20070;-62
2022/05/20 04:22:41;;;;;;;6.57;3.83;;;24.30;69.50;;;;;;10088647;28;20032;-61
2022/05/20 04:27:31;;;;;;;5.32;3.63;;;24.40;69.40;;;;;;10091725;28;20743;-67
2022/05/20 04:32:22;;;;;;;5.45;3.55;;;24.50;69.40;;;;;;10091698;28;20533;-65
2022/05/20 04:37:14;;;;;;;6.40;4.03;;;24.50;69.50;;;;;;10127147;28;20306;-62
2022/05/20 04:47:18;;;;;;;5.38;3.70;;;24.60;69.40;;;;;;10090590;28;20159;-64
2022/05/20 04:52:09;;;;;;;;;;;24.70;69.30;;;;;;10091313;28;20017;-64
2022/05/20 04:57:00;;;;;;;4.57;3.25;;;24.60;69.50;;;;;;10091263;28;20379;-62
2022/05/20 05:01:51;;;;;;;5.43;2.85;;;24.70;69.30;;;;;;10095257;28;20314;-65
2022/05/20 05:06:42;;;;;;;6.72;3.70;;;24.60;69.50;;;;;;10097859;28;20569;-63
2022/05/20 05:11:33;;;;;;;5.82;3.83;;;24.70;69.30;;;;;;10098988;28;20084;-64
2022/05/20 05:16:23;;;;;;;5.20;3.38;;;24.70;69.50;;;;;;10101124;28;20021;-63
2022/05/20 05:21:15;;;;;;;5.53;3.22;;;24.80;69.40;;;;;;10094053;28;20036;-67
2022/05/20 05:26:07;;;;;;;5.78;3.22;;;24.90;69.60;;;;;;10097249;28;20041;-63
2022/05/20 05:30:58;;;;;;;5.13;3.35;;;24.90;69.40;;;;;;10091307;28;20037;-62
2022/05/20 05:35:49;;;;;;;6.80;3.20;;;25.00;69.40;;;;;;10102282;28;20035;-67
2022/05/20 05:40:40;;;;;;;4.32;3.08;;;25.00;69.30;;;;;;10098046;28;20513;-66
2022/05/20 05:45:33;;;;;;;6.15;4.20;;;25.00;69.20;;;;;;10097849;28;20021;-62
2022/05/20 05:50:24;;;;;;;7.25;3.97;;;25.10;69.20;;;;;;10097303;28;20029;-62
2022/05/20 05:55:15;;;;;;;4.72;3.17;;;25.20;69.20;;;;;;10100827;28;20391;-66
2022/05/20 06:00:06;;;;;;;4.65;3.50;;;25.10;69.20;;;;;;10096872;28;20036;-65
2022/05/20 06:04:57;;;;;;;5.50;3.67;;;25.10;69.40;;;;;;10105996;28;20554;-66
2022/05/20 06:09:47;;;;;;;5.68;3.85;;;25.00;69.50;;;;;;10097182;28;20119;-66
2022/05/20 06:14:39;;;;;;;4.43;2.97;;;25.10;69.30;;;;;;10107232;28;20295;-70
2022/05/20 06:19:29;;;;;;;4.32;3.25;;;25.30;69.00;;;;;;10095933;28;20109;-68
2022/05/20 06:24:20;;;;;;;6.00;4.55;;;25.50;68.90;;;;;;10098886;28;20463;-68
2022/05/20 06:29:11;;;;;;;6.28;4.05;;;25.70;68.60;;;;;;10097723;28;20045;-66
2022/05/20 06:34:02;;;;;;;5.63;3.53;;;25.90;68.20;;;;;;10119485;28;20436;-70
2022/05/20 06:44:02;;;;;;;6.32;3.03;;;25.80;68.10;;;;;;10123491;28;20133;-63
2022/05/20 06:48:55;;;;;;;6.40;3.55;;;25.70;68.10;;;;;;10123242;28;20033;-70
2022/05/20 06:53:47;;;;;;;5.20;3.05;;;25.90;67.70;;;;;;10114527;28;20034;-72
2022/05/20 06:58:38;;;;;;;6.72;3.58;;;26.00;67.60;;;;;;10124701;28;20058;-67
2022/05/20 07:03:30;;;;;;;5.03;3.72;;;26.00;67.40;;;;;;10124883;28;20644;-69
2022/05/20 07:08:21;;;;;;;7.47;3.40;;;26.00;67.40;;;;;;10117970;28;20036;-70
2022/05/20 07:13:13;;;;;;;4.80;3.30;;;26.10;67.20;;;;;;10127850;28;20162;-70
2022/05/20 07:18:03;;;;;;;6.20;3.55;;;26.30;66.90;;;;;;10122648;28;20052;-66
2022/05/20 07:22:54;;;;;;;6.50;3.10;;;26.50;66.70;;;;;;10118691;28;20017;-69
2022/05/20 07:27:45;;;;;;;5.88;3.90;;;26.50;66.60;;;;;;10127085;28;20463;-69
2022/05/20 07:32:36;;;;;;;5.32;3.35;;;26.60;66.50;;;;;;10117077;28;20039;-69
2022/05/20 07:37:27;;;;;;;6.15;4.25;;;26.70;66.30;;;;;;10111900;28;20029;-68
2022/05/20 07:42:17;;;;;;;7.60;3.25;;;26.90;65.80;;;;;;10098056;28;20028;-63
2022/05/20 07:47:08;;;;;;;7.95;3.53;;;27.10;65.70;;;;;;10110612;28;20524;-69
2022/05/20 07:52:02;;;;;;;4.97;3.70;;;27.20;65.40;;;;;;10127452;28;20035;-67
2022/05/20 07:56:57;;;;;;;4.20;3.10;;;27.30;65.40;;;;;;10126538;28;20538;-69
2022/05/20 08:01:51;;;;;;;5.95;3.33;;;27.50;65.20;;;;;;10106029;28;20116;-67
2022/05/20 08:06:41;;;;;;;8.00;3.63;;;27.50;65.10;;;;;;10092756;28;20698;-67
2022/05/20 08:11:32;;;;;;;6.28;3.40;;;27.50;64.80;;;;;;10093000;28;20033;-63
2022/05/20 08:16:23;;;;;;;5.20;3.08;;;27.60;64.50;;;;;;10096678;28;20032;-63
2022/05/20 08:21:14;;;;;;;6.35;3.00;;;27.80;64.20;;;;;;10101773;28;20029;-62
2022/05/20 08:26:04;;;;;;;5.68;3.20;;;27.80;63.90;;;;;;10114663;28;20049;-64
2022/05/20 08:30:55;;;;;;;5.57;3.10;;;27.90;63.50;;;;;;10094474;28;20398;-64
2022/05/20 08:35:45;;;;;;;5.13;3.58;;;27.90;63.10;;;;;;10112450;28;20343;-64
2022/05/20 08:40:47;;;;;;;3.85;3.15;;;28.10;62.80;;;;;;10130418;28;20045;-64
2022/05/20 08:45:38;;;;;;;4.70;2.92;;;28.20;62.10;;;;;;10123027;28;20044;-65
2022/05/20 08:50:43;;;;;;;4.55;2.80;;;28.40;61.70;;;;;;10104555;28;20044;-64
2022/05/20 08:55:33;;;;;;;4.60;2.90;;;28.50;61.70;;;;;;10088604;28;20075;-64
2022/05/20 09:00:25;;;;;;;5.72;3.42;;;28.50;60.80;;;;;;10097354;28;20251;-66
2022/05/20 09:05:21;;;;;;;5.30;3.05;;;28.80;60.40;;;;;;10091811;28;20172;-65
2022/05/20 09:10:12;;;;;;;6.30;3.10;;;28.90;59.90;;;;;;10094491;28;20046;-69
2022/05/20 09:20:30;;;;;;;4.63;2.60;;;29.10;59.10;;;;;;10091977;28;20055;-67
2022/05/20 09:25:27;;;;;;;4.43;2.35;;;29.20;59.10;;;;;;10098370;28;20494;-69
2022/05/20 09:30:23;;;;;;;8.05;3.20;;;29.30;58.60;;;;;;10095978;28;20089;-66
2022/05/20 09:35:23;;;;;;;4.53;2.50;;;29.40;57.40;;;;;;10091106;28;20137;-65
2022/05/20 09:40:31;;;;;;;5.53;2.72;;;29.40;56.10;;;;;;10115483;28;20031;-66
2022/05/20 09:45:22;;;;;;;6.13;3.03;;;29.60;56.00;;;;;;10109080;28;20021;-66
2022/05/20 09:50:25;;;;;;;5.90;3.25;;;29.90;55.50;;;;;;10095581;28;20040;-66
2022/05/20 09:55:33;;;;;;;5.53;2.67;;;30.30;53.90;;;;;;10089814;28;20433;-65
2022/05/20 10:00:27;;;;;;;3.80;2.45;;;30.40;53.70;;;;;;10117310;28;20028;-63
2022/05/20 10:05:32;;;;;;;5.22;2.50;;;30.60;53.20;;;;;;10120302;28;20033;-62
2022/05/20 10:10:43;;;;;;;4.07;2.38;;;30.80;52.30;;;;;;10127848;28;20037;-64
2022/05/20 10:15:47;;;;;;;4.68;3.05;;;30.90;50.40;;;;;;10096342;28;20059;-66
2022/05/20 10:21:06;;;;;;;6.50;3.63;;;31.10;50.10;;;;;;10120502;28;20540;-67
2022/05/20 10:26:17;;;;;;;5.28;1.98;;;31.30;47.10;;;;;;10129134;28;20079;-67
2022/05/20 10:36:49;;;;;;;4.78;2.47;;;31.00;48.80;;;;;;10095078;28;20047;-67
2022/05/20 10:42:18;;;;;;;3.60;2.67;;;30.90;48.80;;;;;;10100723;28;20029;-66
2022/05/20 10:52:50;;;;;;;3.90;2.80;;;31.20;49.10;;;;;;10105083;28;20088;-65
2022/05/20 10:58:20;;;;;;;5.85;3.58;;;31.40;49.10;;;;;;10086628;28;20025;-65
2022/05/20 11:03:33;;;;;;;8.77;4.00;;;31.30;49.00;;;;;;10075524;28;20400;-64
2022/05/20 11:09:01;;;;;;;7.55;3.15;;;31.20;49.50;;;;;;10085739;28;20344;-65
2022/05/20 11:14:07;;;;;;;7.32;3.00;;;31.30;49.70;;;;;;10091359;28;20029;-66
2022/05/20 11:19:31;;;;;;;4.20;2.65;;;31.40;50.00;;;;;;10089262;28;20025;-65
2022/05/20 11:24:40;;;;;;;;;;;31.30;49.80;;;;;;10091669;28;20021;-65
2022/05/20 11:29:53;;;;;;;6.78;2.80;;;31.20;50.00;;;;;;10086765;28;19948;-66
2022/05/20 11:35:05;;;;;;;5.10;2.75;;;31.30;49.90;;;;;;10088366;28;20037;-65
2022/05/20 11:40:08;;;;;;;7.78;2.75;;;31.60;49.40;;;;;;10093570;28;20029;-65
2022/05/20 11:45:24;;;;;;;4.90;2.60;;;31.70;49.20;;;;;;10094292;28;20025;-64
2022/05/20 11:50:31;;;;;;;5.35;2.70;;;31.90;48.60;;;;;;10093839;28;20036;-65
2022/05/20 11:55:29;;;;;;;5.53;2.47;;;32.20;48.20;;;;;;10093255;28;20348;-65
2022/05/20 12:00:21;;;;;;;4.55;2.50;;;32.30;47.90;;;;;;10094120;28;20161;-64
2022/05/20 12:05:16;;;;;;;2.60;1.85;;;32.40;47.50;;;;;;10092578;28;20117;-64
2022/05/20 12:10:31;;;;;;;8.13;2.50;;;32.70;46.90;;;;;;10092664;28;20033;-65
2022/05/20 12:15:21;;;;;;;4.38;2.50;;;33.20;46.10;;;;;;10095313;28;20029;-64
2022/05/20 12:25:37;;;;;;;4.75;2.70;;;34.00;45.50;;;;;;10087832;28;20159;-65
2022/05/20 12:30:46;;;;;;;6.18;2.72;;;34.40;44.50;;;;;;10090188;28;20449;-66
2022/05/20 12:35:38;;;;;;;3.15;2.30;;;34.70;44.50;;;;;;10091498;28;20045;-66
2022/05/20 12:40:28;;;;;;;4.33;2.50;;;35.20;44.50;;;;;;10092574;28;20479;-66
2022/05/20 12:45:20;;;;;;;4.53;3.03;;;35.60;44.00;;;;;;10092813;28;20382;-65
2022/05/20 12:50:26;;;;;;;3.40;2.53;;;36.00;43.50;;;;;;10092002;28;20129;-65
2022/05/20 12:55:25;;;;;;;3.78;2.22;;;36.50;42.10;;;;;;10090259;28;20029;-65
2022/05/20 13:00:23;;;;;;;3.55;2.47;;;37.70;41.30;;;;;;10091069;28;20033;-65
2022/05/20 13:05:23;;;;;;;2.65;2.40;;;38.60;40.30;;;;;;10090342;28;20021;-65
2022/05/20 13:10:27;;;;;;;3.00;2.10;;;39.30;39.20;;;;;;10091329;28;20494;-66
2022/05/20 13:15:19;;;;;;;2.88;2.33;;;39.80;38.30;;;;;;10091962;28;20059;-65
2022/05/20 13:20:11;;;;;;;3.83;2.22;;;39.10;38.30;;;;;;10086938;28;20037;-65
2022/05/20 13:25:09;;;;;;;4.72;2.03;;;39.50;37.80;;;;;;10099732;28;20090;-66
2022/05/20 13:30:12;;;;;;;2.25;2.05;;;41.40;37.10;;;;;;10099812;28;20043;-66
2022/05/20 13:35:04;;;;;;;6.00;3.08;;;39.80;35.70;;;;;;10098491;28;20113;-67
2022/05/20 13:40:01;;;;;;;4.03;2.28;;;37.20;37.10;;;;;;10098718;28;20036;-65
2022/05/20 13:44:52;;;;;;;4.47;2.40;;;35.80;37.20;;;;;;10098649;28;20092;-68
2022/05/20 13:49:44;;;;;;;3.83;1.92;;;34.70;37.10;;;;;;10097968;28;20221;-66
2022/05/20 13:54:59;;;;;;;3.28;1.83;;;33.90;37.10;;;;;;10101275;28;20481;-67
2022/05/20 13:59:53;;;;;;;3.17;2.10;;;33.30;37.40;;;;;;10097127;28;20522;-67
2022/05/20 14:04:54;;;;;;;6.85;2.97;;;32.70;38.10;;;;;;10097334;28;20028;-66
2022/05/20 14:09:52;;;;;;;9.65;3.22;;;32.00;39.10;;;;;;10096604;28;20040;-65
2022/05/20 14:14:50;;;;;;;5.75;3.03;;;31.50;40.60;;;;;;10086719;28;20029;-66
2022/05/20 14:19:45;;;;;;;6.50;2.35;;;31.50;41.30;;;;;;10091602;28;20071;-65
2022/05/20 14:24:39;;;;;;;3.85;3.33;;;31.50;42.20;;;;;;10096145;28;20082;-65
2022/05/20 14:29:32;;;;;;;;;;;31.00;42.90;;;;;;10094914;28;20052;-65
2022/05/20 14:34:34;;;;;;;3.40;2.30;;;30.70;43.60;;;;;;10095600;28;19909;-65
2022/05/20 14:39:29;;;;;;;4.90;2.47;;;30.70;43.80;;;;;;10095935;28;20029;-65
2022/05/20 14:44:19;;;;;;;2.22;1.70;;;30.60;44.20;;;;;;10096734;28;20405;-65
2022/05/20 14:49:13;;;;;;;6.57;2.08;;;30.60;44.70;;;;;;10097336;28;20043;-65
2022/05/20 14:54:04;;;;;;;4.50;3.08;;;30.60;45.10;;;;;;10099824;28;20049;-66
2022/05/20 14:58:58;;;;;;;7.03;3.20;;;30.60;45.20;;;;;;10096047;28;20672;-65
2022/05/20 15:03:49;;;;;;;6.07;2.17;;;30.70;45.40;;;;;;10095496;28;20025;-65
2022/05/20 15:08:39;;;;;;;5.30;2.50;;;30.90;45.40;;;;;;10095515;28;20025;-65
2022/05/20 15:13:32;;;;;;;5.75;2.58;;;30.80;45.50;;;;;;10096323;28;20012;-64
2022/05/20 15:18:23;;;;;;;4.03;2.60;;;30.30;47.20;;;;;;10125722;28;20029;-66
2022/05/20 15:23:27;;;;;;;4.93;2.30;;;30.40;47.70;;;;;;10091437;28;20399;-65
2022/05/20 15:38:37;;;;;;;4.00;2.40;;;30.50;47.90;;;;;;10091563;28;20061;-65
2022/05/20 15:43:28;;;;;;;7.38;3.25;;;30.50;48.00;;;;;;10093700;28;20028;-66
2022/05/20 15:48:19;;;;;;;4.30;2.42;;;30.70;48.00;;;;;;10093205;28;20045;-64
2022/05/20 15:53:09;;;;;;;5.85;3.20;;;30.60;48.90;;;;;;10096613;28;20331;-66
2022/05/20 15:58:13;;;;;;;8.10;3.58;;;30.60;49.50;;;;;;10093017;28;20500;-67
2022/05/20 16:03:05;;;;;;;5.78;3.22;;;32.10;48.90;;;;;;10093993;28;20082;-66
2022/05/20 16:08:06;;;;;;;5.85;3.10;;;32.70;49.30;;;;;;10093415;28;20118;-66
2022/05/20 16:12:57;;;;;;;3.83;2.30;;;32.60;49.00;;;;;;10092971;28;20029;-66
2022/05/20 16:17:49;;;;;;;6.85;2.47;;;32.10;49.60;;;;;;10094614;28;20434;-65
2022/05/20 16:22:41;;;;;;;3.42;2.80;;;31.50;50.40;;;;;;10089629;28;20035;-66
2022/05/20 16:27:37;;;;;;;5.18;2.42;;;31.30;50.50;;;;;;10091970;28;20056;-66
2022/05/20 16:32:27;;;;;;;5.00;2.47;;;31.20;50.50;;;;;;10082049;28;20013;-66
2022/05/20 16:37:18;;;;;;;7.45;3.13;;;31.10;50.50;;;;;;10081941;28;20040;-65
2022/05/20 16:42:09;;;;;;;7.43;3.13;;;30.90;50.50;;;;;;10091904;28;20033;-65
2022/05/20 16:47:00;;;;;;;6.25;3.50;;;30.70;50.70;;;;;;10091620;28;20095;-66
2022/05/20 16:51:59;;;;;;;6.00;3.20;;;30.60;50.60;;;;;;10092223;28;20459;-65
2022/05/20 17:02:05;;;;;;;3.85;2.10;;;31.10;48.00;;;;;;10095538;28;20355;-67
2022/05/20 17:06:58;;;;;;;6.82;2.28;;;31.10;46.80;;;;;;10100179;28;20551;-67
2022/05/20 17:11:51;;;;;;;3.88;1.98;;;31.20;46.00;;;;;;10098071;28;20479;-66
2022/05/20 17:16:44;;;;;;;6.90;2.47;;;31.10;45.70;;;;;;10101732;28;20090;-66
2022/05/20 17:26:47;;;;;;;7.32;2.13;;;31.10;44.70;;;;;;10099600;28;20560;-65
2022/05/20 17:31:37;;;;;;;8.38;2.42;;;33.30;42.40;;;;;;10099926;28;20079;-66
2022/05/20 17:36:28;;;;;;;6.40;2.33;;;34.50;41.00;;;;;;10098990;28;20048;-66
2022/05/20 17:41:18;;;;;;;6.50;2.88;;;34.50;40.40;;;;;;10098515;28;20017;-66
2022/05/20 17:46:09;;;;;;;7.40;2.20;;;32.80;41.70;;;;;;10098819;28;20536;-66
2022/05/20 17:51:00;;;;;;;5.43;2.40;;;31.70;42.50;;;;;;10098463;28;20029;-65
2022/05/20 17:55:51;;;;;;;7.13;3.17;;;31.10;42.80;;;;;;10101032;28;20394;-66
2022/05/20 18:00:41;;;;;;;5.40;2.25;;;31.00;42.90;;;;;;10096621;28;20033;-65
2022/05/20 18:05:32;;;;;;;15.75;4.53;;;30.70;42.90;;;;;;10096824;28;20096;-65
2022/05/20 18:10:23;;;;;;;5.40;1.98;;;30.50;43.70;;;;;;10096636;28;20258;-65
2022/05/20 18:15:13;;;;;;;11.90;3.13;;;30.40;43.20;;;;;;10098860;28;20116;-66
2022/05/20 18:20:06;;;;;;;4.97;2.63;;;30.20;43.70;;;;;;10092701;28;20029;-65
2022/05/20 18:24:57;;;;;;;4.18;2.10;;;30.10;43.90;;;;;;10097498;28;20060;-65
2022/05/20 18:29:48;;;;;;;5.85;2.33;;;30.00;44.20;;;;;;10096470;28;20083;-66
2022/05/20 18:39:48;;;;;;;4.18;1.73;;;29.70;44.80;;;;;;10096472;28;20078;-66
2022/05/20 18:44:39;;;;;;;11.63;3.03;;;29.70;45.10;;;;;;10096703;28;20090;-66
2022/05/20 18:49:30;;;;;;;5.93;3.00;;;29.50;45.60;;;;;;10096606;28;20045;-64
2022/05/20 18:54:21;;;;;;;7.10;3.35;;;28.00;49.60;;;;;;10099130;28;20028;-66
2022/05/20 18:59:11;;;;;;;8.68;3.03;;;27.20;52.50;;;;;;10095670;28;20494;-65
2022/05/20 19:04:02;;;;;;;11.75;3.55;;;26.30;56.90;;;;;;10089739;28;20025;-66
2022/05/20 19:08:53;;;;;;;9.02;2.53;;;25.30;60.50;;;;;;10090906;28;20540;-66
2022/05/20 19:13:44;;;;;;;11.75;3.83;;;24.90;62.60;;;;;;10096063;28;20426;-66
2022/05/20 19:18:34;;;;;;;5.28;3.17;;;24.80;64.80;;;;;;10096896;28;20104;-65
2022/05/20 19:23:26;;;;;;;3.70;2.83;;;24.70;65.70;;;;;;10094606;28;20104;-65
2022/05/20 19:28:17;;;;;;;8.50;3.90;;;24.50;66.60;;;;;;10093994;28;20519;-66
2022/05/20 19:33:08;;;;;;;5.07;3.53;;;24.40;68.10;;;;;;10095516;28;20501;-67
2022/05/20 19:37:59;;;;;;;10.30;3.35;;;24.40;68.80;;;;;;10093907;28;20021;-66
2022/05/20 19:42:50;;;;;;;7.47;4.00;;;24.20;69.70;;;;;;10094471;28;20680;-67
2022/05/20 19:47:41;;;;;;;6.25;3.83;;;24.00;71.50;;;;;;10093602;28;20431;-66
2022/05/20 19:52:32;;;;;;;4.55;3.20;;;23.90;72.50;;;;;;10095718;28;20033;-67
2022/05/20 20:02:32;;;;;;;5.60;3.50;;;23.70;74.80;;;;;;10094663;28;20135;-66
2022/05/20 20:07:23;;;;;;;6.07;3.65;;;23.60;75.90;;;;;;10090050;28;20123;-66
2022/05/20 20:12:14;;;;;;;5.68;3.67;;;23.70;75.70;;;;;;10090931;28;20478;-66
2022/05/20 20:17:05;;;;;;;5.72;3.50;;;23.40;76.00;;;;;;10088412;28;20021;-66
2022/05/20 20:27:05;;;;;;;7.07;3.30;;;23.40;76.80;;;;;;10090360;28;20469;-66
2022/05/20 20:31:56;;;;;;;3.83;2.90;;;22.90;78.20;;;;;;10092503;28;20048;-66
2022/05/20 20:36:46;;;;;;;5.18;3.08;;;23.00;78.80;;;;;;10092722;28;20116;-64
2022/05/20 20:41:38;;;;;;;3.35;3.03;;;23.00;78.80;;;;;;10093099;28;20039;-64
2022/05/20 20:46:34;;;;;;;2.85;2.50;;;22.90;79.70;;;;;;10092500;28;20024;-65
2022/05/20 20:51:25;;;;;;;4.72;2.58;;;22.90;79.90;;;;;;10093123;28;20056;-66
2022/05/20 20:56:16;;;;;;;4.50;2.47;;;22.90;80.00;;;;;;10098176;28;20025;-66
2022/05/20 21:01:06;;;;;;;3.70;2.33;;;22.80;80.00;;;;;;10096840;28;20056;-66
2022/05/20 21:05:58;;;;;;;3.70;2.30;;;22.70;79.70;;;;;;10092587;28;20033;-66
2022/05/20 21:10:49;;;;;;;3.10;2.15;;;22.70;79.40;;;;;;10091936;28;20481;-66
2022/05/20 21:15:41;;;;;;;3.35;1.80;;;22.70;79.10;;;;;;10095171;28;20078;-66
2022/05/20 21:20:32;;;;;;;4.22;2.65;;;23.00;78.60;;;;;;10087114;28;20045;-66
2022/05/20 21:25:23;;;;;;;4.60;2.53;;;22.90;78.20;;;;;;10091079;28;20029;-67
2022/05/20 21:30:16;;;;;;;5.45;2.35;;;22.80;78.10;;;;;;10089953;28;20032;-65
2022/05/20 21:35:07;;;;;;;2.15;1.73;;;22.70;77.80;;;;;;10090718;28;20041;-65
2022/05/20 21:39:58;;;;;;;4.18;2.08;;;22.70;77.70;;;;;;10091572;28;20141;-64
2022/05/20 21:44:48;;;;;;;5.68;1.52;;;22.60;77.40;;;;;;10097508;28;20159;-66
2022/05/20 21:49:39;;;;;;;2.67;1.50;;;22.50;76.90;;;;;;10097974;28;20138;-66
2022/05/20 21:54:31;;;;;;;1.77;1.42;;;22.40;76.80;;;;;;10102366;28;20108;-66
2022/05/20 21:59:21;;;;;;;1.48;1.30;;;22.30;76.50;;;;;;10098791;28;20021;-66
2022/05/20 22:09:21;;;;;;;2.20;1.80;;;22.30;75.70;;;;;;10099175;28;20479;-67
2022/05/20 22:14:13;;;;;;;1.83;1.60;;;22.20;75.50;;;;;;10098289;28;20193;-64
2022/05/20 22:19:04;;;;;;;4.70;2.13;;;22.30;75.00;;;;;;10095901;28;20514;-65
2022/05/20 22:23:55;;;;;;;3.47;1.73;;;22.10;75.00;;;;;;10098059;28;20040;-66
2022/05/20 22:28:45;;;;;;;2.50;1.70;;;22.20;74.90;;;;;;10097205;28;20602;-66
2022/05/20 22:33:36;;;;;;;5.35;2.00;;;22.30;74.60;;;;;;10097485;28;20078;-66
2022/05/20 22:38:28;;;;;;;3.28;1.55;;;22.10;74.90;;;;;;10096908;28;20025;-65
2022/05/20 22:43:19;;;;;;;2.47;1.70;;;22.00;75.30;;;;;;10097035;28;20016;-68
2022/05/20 22:48:10;;;;;;;3.55;2.92;;;22.00;75.00;;;;;;10094266;28;20049;-65
2022/05/20 22:53:00;;;;;;;3.38;1.80;;;22.10;75.20;;;;;;10131153;28;20017;-66
2022/05/20 22:57:51;;;;;;;2.22;1.60;;;22.00;74.90;;;;;;10096885;28;20032;-66
2022/05/20 23:02:43;;;;;;;2.90;1.88;;;21.90;75.40;;;;;;10098527;28;20115;-67
2022/05/20 23:07:34;;;;;;;3.47;2.20;;;21.80;75.80;;;;;;10084172;28;20064;-66
2022/05/20 23:12:25;;;;;;;2.38;1.88;;;21.90;75.50;;;;;;10095648;28;20479;-66
2022/05/20 23:17:16;;;;;;;3.78;2.20;;;21.70;76.00;;;;;;10096865;28;20053;-65
2022/05/20 23:22:07;;;;;;;9.52;2.38;;;21.70;76.30;;;;;;10096258;28;20445;-67
2022/05/20 23:26:57;;;;;;;3.53;2.13;;;21.40;77.20;;;;;;10089114;28;20053;-66
2022/05/20 23:31:53;;;;;;;3.47;2.30;;;21.30;77.20;;;;;;10094514;28;20111;-66
2022/05/20 23:36:44;;;;;;;4.38;2.53;;;21.10;77.70;;;;;;10093773;28;20013;-66
2022/05/20 23:41:37;;;;;;;3.38;2.53;;;20.80;78.10;;;;;;10099054;28;20301;-66
2022/05/20 23:46:28;;;;;;;3.45;2.78;;;20.50;78.90;;;;;;10099404;28;20107;-66
2022/05/20 23:51:19;;;;;;;2.80;2.50;;;20.40;79.40;;;;;;10094024;28;20191;-65
